Terminal Aerodrome Forecast
Issued by NWS

Home | Current Version | Previous Version | Text Only | Print | Product List | Glossary Off
Versions: 1 2 3 4 5 6 7 8 9 10 11 12 13 14 15 16 17

000
FTUS43 KICT 011026 AAA
TAFRSL
TAF AMD
KRSL 011026Z 0110/0206 19003KT P6SM OVC035
      TEMPO 0110/0114 5SM -SN BR OVC020
     FM011500 34006KT P6SM SCT020 BKN130
     FM012300 08006KT P6SM BKN130=

USA.gov is the U.S. government's official web portal to all federal, state and local government web resources and services.